createdAt,value
2023-03-26T00:00:50.186Z,21.02
2023-03-26T00:03:39.212Z,25.02
2023-03-26T00:06:30.571Z,20.55
2023-03-26T00:09:18.805Z,19.75
2023-03-26T00:12:06.266Z,18.23
2023-03-26T00:14:54.290Z,18.27
2023-03-26T00:17:42.149Z,15.30
2023-03-26T00:20:32.851Z,15.90
2023-03-26T00:23:22.195Z,12.60
2023-03-26T00:26:11.324Z,13.88
2023-03-26T00:29:00.536Z,15.13
2023-03-26T00:31:47.874Z,15.23
2023-03-26T00:34:35.614Z,15.23
2023-03-26T00:37:26.572Z,16.77
2023-03-26T00:40:15.615Z,14.80
2023-03-26T00:43:10.273Z,11.70
2023-03-26T00:45:58.121Z,13.48
2023-03-26T00:48:46.654Z,14.75
2023-03-26T00:51:35.133Z,13.25
2023-03-26T00:54:22.419Z,17.58
2023-03-26T00:57:12.874Z,15.00
2023-03-26T01:00:16.921Z,13.38
2023-03-26T01:03:05.810Z,13.27
2023-03-26T01:05:55.798Z,15.30
2023-03-26T01:08:46.845Z,14.63
2023-03-26T01:11:36.376Z,14.27
2023-03-26T01:14:29.086Z,17.88
2023-03-26T01:17:16.922Z,13.23
2023-03-26T01:20:15.472Z,15.90
2023-03-26T01:23:07.483Z,13.73
2023-03-26T01:26:05.480Z,17.25
2023-03-26T01:28:56.824Z,13.07
2023-03-26T01:31:54.026Z,16.45
2023-03-26T01:34:57.647Z,14.80
2023-03-26T01:37:58.984Z,15.32
2023-03-26T01:40:49.636Z,17.03
2023-03-26T01:43:45.686Z,15.18
2023-03-26T01:46:36.636Z,14.80
2023-03-26T01:49:24.470Z,16.93
2023-03-26T01:52:16.240Z,18.05
2023-03-26T01:55:04.229Z,15.98
2023-03-26T01:58:05.179Z,18.73
2023-03-26T02:01:03.606Z,17.75
2023-03-26T02:03:58.052Z,17.67
2023-03-26T02:06:52.452Z,20.52
2023-03-26T02:09:46.773Z,18.33
2023-03-26T02:12:34.685Z,20.13
2023-03-26T02:15:22.254Z,20.88
2023-03-26T02:18:13.565Z,19.27
2023-03-26T02:21:00.842Z,21.95
2023-03-26T02:23:50.979Z,19.23
2023-03-26T02:26:38.758Z,23.65
2023-03-26T02:29:31.455Z,17.45
2023-03-26T02:32:20.303Z,17.90
2023-03-26T02:35:09.647Z,20.88
2023-03-26T02:37:56.870Z,16.42
2023-03-26T02:40:44.196Z,19.35
2023-03-26T02:43:31.525Z,18.77
2023-03-26T02:46:18.813Z,18.55
2023-03-26T02:49:30.640Z,19.33
2023-03-26T02:52:20.020Z,18.02
2023-03-26T02:55:10.259Z,15.68
2023-03-26T02:58:00.254Z,18.27
2023-03-26T03:00:55.970Z,19.88
2023-03-26T03:03:55.986Z,16.23
2023-03-26T03:06:57.519Z,18.10
2023-03-26T03:09:47.141Z,18.17
2023-03-26T03:12:52.947Z,16.40
2023-03-26T03:15:40.453Z,19.33
2023-03-26T03:18:29.627Z,17.90
2023-03-26T03:21:16.852Z,13.60
2023-03-26T03:24:04.090Z,16.00
2023-03-26T03:26:58.065Z,17.60
2023-03-26T03:29:53.667Z,17.77
2023-03-26T03:33:13.781Z,16.65
2023-03-26T03:36:01.318Z,16.88
2023-03-26T03:38:49.139Z,14.77
2023-03-26T03:41:39.563Z,18.23
2023-03-26T03:44:32.892Z,16.08
2023-03-26T03:47:23.111Z,15.27
2023-03-26T03:50:12.151Z,15.10
2023-03-26T03:53:08.468Z,13.32
2023-03-26T03:55:57.596Z,18.83
2023-03-26T03:58:58.442Z,17.43
2023-03-26T04:01:53.396Z,16.20
2023-03-26T04:04:50.357Z,14.70
2023-03-26T04:07:40.892Z,15.05
2023-03-26T04:10:28.269Z,14.43
2023-03-26T04:13:34.952Z,14.38
2023-03-26T04:16:36.211Z,16.67
2023-03-26T04:19:24.852Z,15.60
2023-03-26T04:22:12.155Z,16.08
2023-03-26T04:25:19.489Z,15.55
2023-03-26T04:28:11.912Z,16.40
2023-03-26T04:31:24.455Z,14.65
2023-03-26T04:34:24.332Z,15.52
2023-03-26T04:37:35.488Z,16.30
2023-03-26T04:40:30.680Z,16.50
2023-03-26T04:43:50.700Z,14.85
2023-03-26T04:46:38.081Z,14.35
2023-03-26T04:49:35.115Z,18.03
2023-03-26T04:52:22.539Z,14.23
2023-03-26T04:55:35.571Z,16.33
2023-03-26T04:58:33.190Z,16.17
2023-03-26T05:01:21.636Z,16.13
2023-03-26T05:04:09.223Z,17.25
2023-03-26T05:06:58.084Z,18.48
2023-03-26T05:09:53.886Z,13.77
2023-03-26T05:12:56.462Z,14.45
2023-03-26T05:15:50.300Z,18.20
2023-03-26T05:18:49.139Z,19.25
2023-03-26T05:21:36.999Z,16.08
2023-03-26T05:24:24.726Z,18.17
2023-03-26T05:27:17.067Z,14.68
2023-03-26T05:30:07.774Z,17.40
2023-03-26T05:33:04.345Z,16.67
2023-03-26T05:36:02.322Z,15.27
2023-03-26T05:38:52.586Z,16.77
2023-03-26T05:41:59.654Z,19.25
2023-03-26T05:44:55.794Z,14.35
2023-03-26T05:47:49.713Z,14.93
2023-03-26T05:50:37.728Z,17.48
2023-03-26T05:53:26.855Z,13.75
2023-03-26T05:56:33.172Z,12.02
2023-03-26T05:59:39.205Z,14.95
2023-03-26T06:03:12.754Z,13.75
2023-03-26T06:06:03.940Z,13.80
2023-03-26T06:09:03.537Z,13.57
2023-03-26T06:11:51.272Z,12.88
2023-03-26T06:14:39.025Z,13.43
2023-03-26T06:17:35.080Z,13.77
2023-03-26T06:20:56.139Z,12.50
2023-03-26T06:24:02.522Z,15.40
2023-03-26T06:27:10.018Z,10.93
2023-03-26T06:30:00.601Z,11.70
2023-03-26T06:33:24.601Z,14.57
2023-03-26T06:36:13.973Z,12.65
2023-03-26T06:39:01.401Z,10.50
2023-03-26T06:41:55.791Z,12.00
2023-03-26T06:45:06.771Z,12.98
2023-03-26T06:48:12.945Z,12.18
2023-03-26T06:51:28.226Z,11.93
2023-03-26T06:54:34.589Z,12.77
2023-03-26T06:57:41.496Z,12.15
2023-03-26T07:00:47.645Z,12.75
2023-03-26T07:03:59.987Z,12.10
2023-03-26T07:07:07.561Z,11.67
2023-03-26T07:10:13.229Z,12.52
2023-03-26T07:13:15.589Z,11.43
2023-03-26T07:16:21.936Z,9.35
2023-03-26T07:19:15.831Z,10.30
2023-03-26T07:22:03.668Z,8.73
2023-03-26T07:25:13.379Z,6.45
2023-03-26T07:28:21.945Z,6.40
2023-03-26T07:31:34.777Z,7.30
2023-03-26T07:34:51.938Z,7.68
2023-03-26T07:38:15.100Z,5.53
2023-03-26T07:41:21.318Z,9.68
2023-03-26T07:44:55.934Z,9.13
2023-03-26T07:48:04.639Z,7.95
2023-03-26T07:51:05.521Z,5.37
2023-03-26T07:54:19.573Z,4.90
2023-03-26T07:57:44.426Z,6.13
2023-03-26T08:01:10.221Z,6.05
2023-03-26T08:04:23.122Z,6.88
2023-03-26T08:07:55.500Z,5.25
2023-03-26T08:11:07.298Z,6.45
2023-03-26T08:14:18.077Z,6.72
2023-03-26T08:17:12.724Z,8.30
2023-03-26T08:20:12.133Z,5.95
2023-03-26T08:23:08.102Z,7.00
2023-03-26T08:26:02.724Z,9.80
2023-03-26T08:29:00.156Z,8.75
2023-03-26T08:31:50.759Z,7.70
2023-03-26T08:34:38.240Z,7.10
2023-03-26T08:37:26.614Z,6.57
2023-03-26T08:40:18.589Z,6.75
2023-03-26T08:43:33.187Z,7.97
2023-03-26T08:46:40.669Z,8.45
2023-03-26T08:49:53.344Z,9.15
2023-03-26T08:53:10.288Z,7.13
2023-03-26T08:56:08.655Z,7.85
2023-03-26T09:00:01.312Z,8.00
2023-03-26T09:03:39.595Z,7.30
2023-03-26T09:06:56.768Z,7.72
2023-03-26T09:10:10.596Z,7.70
2023-03-26T09:13:23.969Z,8.45
2023-03-26T09:16:39.528Z,7.55
2023-03-26T09:19:46.506Z,8.48
2023-03-26T09:23:02.505Z,7.95
2023-03-26T09:26:13.994Z,7.28
2023-03-26T09:29:44.846Z,6.90
2023-03-26T09:32:48.891Z,9.48
2023-03-26T09:36:09.899Z,5.60
2023-03-26T09:39:08.943Z,8.33
2023-03-26T09:42:09.225Z,7.45
2023-03-26T09:45:17.211Z,6.50
2023-03-26T09:48:54.198Z,7.30
2023-03-26T09:52:04.868Z,6.00
2023-03-26T09:55:20.387Z,6.18
2023-03-26T09:58:45.464Z,7.40
2023-03-26T10:01:43.773Z,7.72
2023-03-26T10:05:10.252Z,6.53
2023-03-26T10:08:08.982Z,6.30
2023-03-26T10:11:04.494Z,7.43
2023-03-26T10:14:01.431Z,6.30
2023-03-26T10:17:00.215Z,6.57
2023-03-26T10:20:01.119Z,7.22
2023-03-26T10:23:02.889Z,6.70
2023-03-26T10:26:11.774Z,6.40
2023-03-26T10:29:17.360Z,7.13
2023-03-26T10:32:19.088Z,7.30
2023-03-26T10:35:22.407Z,6.10
2023-03-26T10:38:18.008Z,7.15
2023-03-26T10:41:16.358Z,6.25
2023-03-26T10:44:29.120Z,5.30
2023-03-26T10:47:36.161Z,7.07
2023-03-26T10:50:43.601Z,6.55
2023-03-26T10:53:38.510Z,5.00
2023-03-26T10:56:31.082Z,6.07
2023-03-26T10:59:19.746Z,5.20
2023-03-26T11:02:29.607Z,4.50
2023-03-26T11:05:29.699Z,4.93
2023-03-26T11:08:31.783Z,6.03
2023-03-26T11:11:27.701Z,5.20
2023-03-26T11:14:33.749Z,7.80
2023-03-26T11:17:39.340Z,5.20
2023-03-26T11:20:36.065Z,7.15
2023-03-26T11:23:37.168Z,5.93
2023-03-26T11:26:30.026Z,5.90
2023-03-26T11:29:43.267Z,6.47
2023-03-26T11:32:39.729Z,5.83
2023-03-26T11:35:39.679Z,5.90
2023-03-26T11:38:37.701Z,6.78
2023-03-26T11:41:28.611Z,5.85
2023-03-26T11:44:26.290Z,5.30
2023-03-26T11:47:20.057Z,4.75
2023-03-26T11:50:27.669Z,5.22
2023-03-26T11:53:17.966Z,6.25
2023-03-26T11:56:11.011Z,5.53
2023-03-26T11:59:03.095Z,5.07
2023-03-26T12:01:52.685Z,5.40
2023-03-26T12:04:46.026Z,5.63
2023-03-26T12:07:34.889Z,4.57
2023-03-26T12:10:29.884Z,4.82
2023-03-26T12:13:31.090Z,5.53
2023-03-26T12:16:21.025Z,4.25
2023-03-26T12:19:21.022Z,4.47
2023-03-26T12:22:30.666Z,4.33
2023-03-26T12:25:20.541Z,5.28
2023-03-26T12:28:19.420Z,4.47
2023-03-26T12:31:10.063Z,4.50
2023-03-26T12:34:15.208Z,4.13
2023-03-26T12:37:06.027Z,5.25
2023-03-26T12:40:14.307Z,4.90
2023-03-26T12:44:49.205Z,4.30
2023-03-26T12:47:56.617Z,7.23
2023-03-26T12:49:35.483Z,4.50
2023-03-26T12:52:38.570Z,4.25
2023-03-26T12:55:44.218Z,5.30
2023-03-26T12:59:11.940Z,3.42
2023-03-26T13:02:12.851Z,3.58
2023-03-26T13:05:18.011Z,4.20
2023-03-26T13:08:27.046Z,4.10
2023-03-26T13:11:25.677Z,3.30
2023-03-26T13:14:31.951Z,4.18
2023-03-26T13:17:27.507Z,4.00
2023-03-26T13:20:21.612Z,4.47
2023-03-26T13:23:19.828Z,4.60
2023-03-26T13:26:19.365Z,2.95
2023-03-26T13:29:16.128Z,3.25
2023-03-26T13:32:11.600Z,3.38
2023-03-26T13:35:09.471Z,3.30
2023-03-26T13:38:03.343Z,2.65
2023-03-26T13:41:00.400Z,2.10
2023-03-26T13:44:01.586Z,3.22
2023-03-26T13:46:53.201Z,3.17
2023-03-26T13:49:45.110Z,2.77
2023-03-26T13:52:37.990Z,2.80
2023-03-26T13:55:30.106Z,2.95
2023-03-26T13:58:23.125Z,2.70
2023-03-26T14:01:17.557Z,2.97
2023-03-26T14:04:11.984Z,2.75
2023-03-26T14:07:04.656Z,2.42
2023-03-26T14:09:56.522Z,3.13
2023-03-26T14:12:51.787Z,3.20
2023-03-26T14:15:47.976Z,3.15
2023-03-26T14:18:44.511Z,2.60
2023-03-26T14:21:58.049Z,2.40
2023-03-26T14:25:09.135Z,3.42
2023-03-26T14:28:07.297Z,3.00
2023-03-26T14:31:19.495Z,3.65
2023-03-26T14:34:25.979Z,2.78
2023-03-26T14:37:30.183Z,2.50
2023-03-26T14:40:48.966Z,2.67
2023-03-26T14:44:00.052Z,4.28
2023-03-26T14:47:15.928Z,2.60
2023-03-26T14:50:42.736Z,1.80
2023-03-26T14:53:34.560Z,2.67
2023-03-26T14:56:47.022Z,2.10
2023-03-26T14:59:59.960Z,2.38
2023-03-26T15:03:22.715Z,2.28
2023-03-26T15:06:48.951Z,2.78
2023-03-26T15:10:11.092Z,2.67
2023-03-26T15:13:52.589Z,2.47
2023-03-26T15:17:04.897Z,2.35
2023-03-26T15:20:31.935Z,2.60
2023-03-26T15:23:55.514Z,2.90
2023-03-26T15:27:24.526Z,3.57
2023-03-26T15:30:41.880Z,2.95
2023-03-26T15:34:05.020Z,2.92
2023-03-26T15:37:29.198Z,3.17
2023-03-26T15:40:29.950Z,3.25
2023-03-26T15:43:21.737Z,3.83
2023-03-26T15:46:32.390Z,3.88
2023-03-26T15:49:27.758Z,4.50
2023-03-26T15:52:26.453Z,4.63
2023-03-26T15:55:29.251Z,6.10
2023-03-26T15:58:26.497Z,5.13
2023-03-26T16:01:23.905Z,5.25
2023-03-26T16:04:22.030Z,4.90
2023-03-26T16:07:26.457Z,5.72
2023-03-26T16:10:38.378Z,6.30
2023-03-26T16:13:38.083Z,6.68
2023-03-26T16:16:41.270Z,8.23
2023-03-26T16:19:53.180Z,10.50
2023-03-26T16:22:56.180Z,12.55
2023-03-26T16:25:58.108Z,16.45
2023-03-26T16:29:14.347Z,15.38
2023-03-26T16:32:14.998Z,18.48
2023-03-26T16:35:05.719Z,19.90
2023-03-26T16:38:06.513Z,16.73
2023-03-26T16:41:04.907Z,19.83
2023-03-26T16:44:02.358Z,19.50
2023-03-26T16:47:01.858Z,20.58
2023-03-26T16:50:07.502Z,24.00
2023-03-26T16:53:02.109Z,22.13
2023-03-26T16:55:57.939Z,21.87
2023-03-26T16:58:56.279Z,23.13
2023-03-26T17:01:48.612Z,24.80
2023-03-26T17:04:38.790Z,23.48
2023-03-26T17:07:31.323Z,24.65
2023-03-26T17:10:30.872Z,26.75
2023-03-26T17:13:26.029Z,25.25
2023-03-26T17:16:19.097Z,22.60
2023-03-26T17:19:18.098Z,25.83
2023-03-26T17:22:13.799Z,19.80
2023-03-26T17:25:05.852Z,23.52
2023-03-26T17:28:22.327Z,22.40
2023-03-26T17:31:20.362Z,21.57
2023-03-26T17:34:46.966Z,22.40
2023-03-26T17:37:48.006Z,22.00
2023-03-26T17:40:48.290Z,26.13
2023-03-26T17:43:44.688Z,23.00
2023-03-26T17:46:37.636Z,20.48
2023-03-26T17:49:29.473Z,18.02
2023-03-26T17:52:21.901Z,18.27
2023-03-26T17:55:16.828Z,18.55
2023-03-26T17:58:05.478Z,26.38
2023-03-26T18:00:57.807Z,18.80
2023-03-26T18:03:50.862Z,19.50
2023-03-26T18:06:56.418Z,20.25
2023-03-26T18:09:58.197Z,15.68
2023-03-26T18:13:06.719Z,16.13
2023-03-26T18:16:09.648Z,15.68
2023-03-26T18:19:00.814Z,14.60
2023-03-26T18:21:50.791Z,13.43
2023-03-26T18:24:40.062Z,13.73
2023-03-26T18:27:34.146Z,12.10
2023-03-26T18:30:26.155Z,13.02
2023-03-26T18:33:15.930Z,11.80
2023-03-26T18:36:04.738Z,8.93
2023-03-26T18:38:57.324Z,13.50
2023-03-26T18:41:44.743Z,10.73
2023-03-26T18:44:36.462Z,11.18
2023-03-26T18:47:25.899Z,11.40
2023-03-26T18:50:20.076Z,12.27
2023-03-26T18:53:11.306Z,10.02
2023-03-26T18:55:59.445Z,10.13
2023-03-26T18:58:52.777Z,10.50
2023-03-26T19:01:39.827Z,12.88
2023-03-26T19:04:31.401Z,13.20
2023-03-26T19:07:23.479Z,9.90
2023-03-26T19:10:21.369Z,11.52
2023-03-26T19:13:15.016Z,10.70
2023-03-26T19:16:08.431Z,10.30
2023-03-26T19:18:55.913Z,11.20
2023-03-26T19:21:45.352Z,11.18
2023-03-26T19:24:33.009Z,10.70
2023-03-26T19:27:20.448Z,10.40
2023-03-26T19:30:09.148Z,12.18
2023-03-26T19:33:13.217Z,11.60
2023-03-26T19:36:05.052Z,9.30
2023-03-26T19:38:55.734Z,10.52
2023-03-26T19:41:44.213Z,14.10
2023-03-26T19:44:34.307Z,9.93
2023-03-26T19:47:31.909Z,13.88
2023-03-26T19:50:29.759Z,9.88
2023-03-26T19:53:24.157Z,10.32
2023-03-26T19:56:18.554Z,12.00
2023-03-26T19:59:06.381Z,11.15
2023-03-26T20:01:54.051Z,10.38
2023-03-26T20:04:41.782Z,13.73
2023-03-26T20:07:35.847Z,10.35
2023-03-26T20:10:23.335Z,11.25
2023-03-26T20:13:16.597Z,9.93
2023-03-26T20:16:08.666Z,10.55
2023-03-26T20:18:57.418Z,9.63
2023-03-26T20:21:45.840Z,9.70
2023-03-26T20:24:34.415Z,10.98
2023-03-26T20:27:22.505Z,9.93
2023-03-26T20:30:14.040Z,10.27
2023-03-26T20:33:12.772Z,11.25
2023-03-26T20:36:02.151Z,10.82
2023-03-26T20:38:49.760Z,11.73
2023-03-26T20:41:39.952Z,10.90
2023-03-26T20:44:28.227Z,9.02
2023-03-26T20:47:16.649Z,9.38
2023-03-26T20:50:04.271Z,7.75
2023-03-26T20:52:52.403Z,9.13
2023-03-26T20:55:40.355Z,8.27
2023-03-26T20:58:30.698Z,9.10
2023-03-26T21:01:20.575Z,9.52
2023-03-26T21:04:09.506Z,9.45
2023-03-26T21:07:06.678Z,10.88
2023-03-26T21:10:02.058Z,11.50
2023-03-26T21:12:55.066Z,10.32
2023-03-26T21:15:42.517Z,9.80
2023-03-26T21:18:30.512Z,8.30
2023-03-26T21:21:35.847Z,9.73
2023-03-26T21:24:33.241Z,9.35
2023-03-26T21:27:27.264Z,9.48
2023-03-26T21:30:17.098Z,8.90
2023-03-26T21:33:06.402Z,8.80
2023-03-26T21:35:57.245Z,11.02
2023-03-26T21:38:47.836Z,11.98
2023-03-26T21:41:44.286Z,7.45
2023-03-26T21:44:32.926Z,10.68
2023-03-26T21:47:21.082Z,11.90
2023-03-26T21:50:10.261Z,11.07
2023-03-26T21:52:59.183Z,9.88
2023-03-26T21:55:59.277Z,10.23
2023-03-26T21:58:52.429Z,10.00
2023-03-26T22:01:48.811Z,11.88
2023-03-26T22:04:40.643Z,10.05
2023-03-26T22:07:32.177Z,11.00
2023-03-26T22:10:20.125Z,11.47
2023-03-26T22:13:10.103Z,12.25
2023-03-26T22:15:58.299Z,14.67
2023-03-26T22:18:45.516Z,10.95
2023-03-26T22:21:33.806Z,10.57
2023-03-26T22:24:21.850Z,11.15
2023-03-26T22:27:11.829Z,14.10
2023-03-26T22:30:01.132Z,9.73
2023-03-26T22:32:49.010Z,10.40
2023-03-26T22:35:36.862Z,9.93
2023-03-26T22:38:24.412Z,11.03
2023-03-26T22:41:13.170Z,11.55
2023-03-26T22:44:09.416Z,10.75
2023-03-26T22:47:09.481Z,11.10
2023-03-26T22:49:57.267Z,14.35
2023-03-26T22:52:45.491Z,11.07
2023-03-26T22:55:33.374Z,9.98
2023-03-26T22:58:21.529Z,11.77
2023-03-26T23:01:11.481Z,11.10
2023-03-26T23:04:00.479Z,11.23
2023-03-26T23:06:47.688Z,11.10
2023-03-26T23:09:37.057Z,12.70
2023-03-26T23:12:26.200Z,11.83
2023-03-26T23:15:14.147Z,11.25
2023-03-26T23:18:02.104Z,11.63
2023-03-26T23:20:55.899Z,13.45
2023-03-26T23:23:43.997Z,11.30
2023-03-26T23:26:43.939Z,11.60
2023-03-26T23:29:36.529Z,11.20
2023-03-26T23:32:25.526Z,12.00
2023-03-26T23:35:13.382Z,10.43
2023-03-26T23:38:02.754Z,9.77
2023-03-26T23:40:57.137Z,10.00
2023-03-26T23:43:54.596Z,13.20
2023-03-26T23:46:44.283Z,10.50
2023-03-26T23:49:31.917Z,12.90
2023-03-26T23:52:20.141Z,10.07
2023-03-26T23:55:10.640Z,10.93
2023-03-26T23:57:57.987Z,9.77
